sensor_id;sensor_type;location;lat;lon;timestamp;temperature;humidity
15564;DHT22;7883;52.554;13.364;2023-03-23T00:00:07;14.00;99.90
15564;DHT22;7883;52.554;13.364;2023-03-23T00:02:35;14.00;99.90
15564;DHT22;7883;52.554;13.364;2023-03-23T00:05:04;14.00;99.90
15564;DHT22;7883;52.554;13.364;2023-03-23T00:07:32;14.10;99.90
15564;DHT22;7883;52.554;13.364;2023-03-23T00:10:01;14.00;99.90
15564;DHT22;7883;52.554;13.364;2023-03-23T00:12:30;14.00;99.90
15564;DHT22;7883;52.554;13.364;2023-03-23T00:15:00;14.00;99.90
15564;DHT22;7883;52.554;13.364;2023-03-23T00:17:27;13.90;99.90
15564;DHT22;7883;52.554;13.364;2023-03-23T00:19:55;13.90;99.90
15564;DHT22;7883;52.554;13.364;2023-03-23T00:22:22;13.90;99.90
15564;DHT22;7883;52.554;13.364;2023-03-23T00:24:51;13.80;99.90
15564;DHT22;7883;52.554;13.364;2023-03-23T00:27:20;13.80;99.90
15564;DHT22;7883;52.554;13.364;2023-03-23T00:29:48;13.80;99.90
15564;DHT22;7883;52.554;13.364;2023-03-23T00:32:19;13.80;99.90
15564;DHT22;7883;52.554;13.364;2023-03-23T00:34:46;13.90;99.90
15564;DHT22;7883;52.554;13.364;2023-03-23T00:37:14;13.80;99.90
15564;DHT22;7883;52.554;13.364;2023-03-23T00:39:43;13.80;99.90
15564;DHT22;7883;52.554;13.364;2023-03-23T00:42:12;13.80;99.90
15564;DHT22;7883;52.554;13.364;2023-03-23T00:44:41;13.80;99.90
15564;DHT22;7883;52.554;13.364;2023-03-23T00:47:09;13.80;99.90
15564;DHT22;7883;52.554;13.364;2023-03-23T00:49:37;13.80;99.90
15564;DHT22;7883;52.554;13.364;2023-03-23T00:52:05;13.80;99.90
15564;DHT22;7883;52.554;13.364;2023-03-23T00:54:33;13.80;99.90
15564;DHT22;7883;52.554;13.364;2023-03-23T00:57:02;13.80;99.90
15564;DHT22;7883;52.554;13.364;2023-03-23T00:59:29;13.70;99.90
15564;DHT22;7883;52.554;13.364;2023-03-23T01:01:57;13.80;99.90
15564;DHT22;7883;52.554;13.364;2023-03-23T01:04:25;13.70;99.90
15564;DHT22;7883;52.554;13.364;2023-03-23T01:06:54;13.70;99.90
15564;DHT22;7883;52.554;13.364;2023-03-23T01:09:22;13.70;99.90
15564;DHT22;7883;52.554;13.364;2023-03-23T01:11:50;13.70;99.90
15564;DHT22;7883;52.554;13.364;2023-03-23T01:14:19;13.70;99.90
15564;DHT22;7883;52.554;13.364;2023-03-23T01:16:46;13.60;99.90
15564;DHT22;7883;52.554;13.364;2023-03-23T01:19:14;13.60;99.90
15564;DHT22;7883;52.554;13.364;2023-03-23T01:21:42;13.60;99.90
15564;DHT22;7883;52.554;13.364;2023-03-23T01:24:09;13.60;99.90
15564;DHT22;7883;52.554;13.364;2023-03-23T01:26:37;13.60;99.90
15564;DHT22;7883;52.554;13.364;2023-03-23T01:29:04;13.60;99.90
15564;DHT22;7883;52.554;13.364;2023-03-23T01:31:31;13.60;99.90
15564;DHT22;7883;52.554;13.364;2023-03-23T01:33:58;13.60;99.90
15564;DHT22;7883;52.554;13.364;2023-03-23T01:36:28;13.50;99.90
15564;DHT22;7883;52.554;13.364;2023-03-23T01:38:59;13.50;99.90
15564;DHT22;7883;52.554;13.364;2023-03-23T01:41:28;13.50;99.90
15564;DHT22;7883;52.554;13.364;2023-03-23T01:43:57;13.50;99.90
15564;DHT22;7883;52.554;13.364;2023-03-23T01:46:25;13.50;99.90
15564;DHT22;7883;52.554;13.364;2023-03-23T01:48:53;13.50;99.90
15564;DHT22;7883;52.554;13.364;2023-03-23T01:51:22;13.50;99.90
15564;DHT22;7883;52.554;13.364;2023-03-23T01:53:53;13.50;99.90
15564;DHT22;7883;52.554;13.364;2023-03-23T01:56:24;13.50;99.90
15564;DHT22;7883;52.554;13.364;2023-03-23T01:58:52;13.50;99.90
15564;DHT22;7883;52.554;13.364;2023-03-23T02:01:21;13.50;99.90
15564;DHT22;7883;52.554;13.364;2023-03-23T02:03:52;13.50;99.90
15564;DHT22;7883;52.554;13.364;2023-03-23T02:06:21;13.50;99.90
15564;DHT22;7883;52.554;13.364;2023-03-23T02:08:51;13.50;99.90
15564;DHT22;7883;52.554;13.364;2023-03-23T02:11:20;13.50;99.90
15564;DHT22;7883;52.554;13.364;2023-03-23T02:13:48;13.50;99.90
15564;DHT22;7883;52.554;13.364;2023-03-23T02:16:21;13.50;99.90
15564;DHT22;7883;52.554;13.364;2023-03-23T02:18:58;13.50;99.90
15564;DHT22;7883;52.554;13.364;2023-03-23T02:21:59;13.40;99.90
15564;DHT22;7883;52.554;13.364;2023-03-23T02:27:33;13.40;99.90
15564;DHT22;7883;52.554;13.364;2023-03-23T02:30:14;13.40;99.90
15564;DHT22;7883;52.554;13.364;2023-03-23T02:33:18;13.40;99.90
15564;DHT22;7883;52.554;13.364;2023-03-23T02:35:52;13.50;99.90
15564;DHT22;7883;52.554;13.364;2023-03-23T02:38:25;13.60;99.90
15564;DHT22;7883;52.554;13.364;2023-03-23T02:40:56;13.40;99.90
15564;DHT22;7883;52.554;13.364;2023-03-23T02:43:30;13.50;99.90
15564;DHT22;7883;52.554;13.364;2023-03-23T02:45:58;13.50;99.90
15564;DHT22;7883;52.554;13.364;2023-03-23T02:48:29;13.50;99.90
15564;DHT22;7883;52.554;13.364;2023-03-23T02:50:57;13.50;99.90
15564;DHT22;7883;52.554;13.364;2023-03-23T02:53:26;13.50;99.90
15564;DHT22;7883;52.554;13.364;2023-03-23T02:55:55;13.50;99.90
15564;DHT22;7883;52.554;13.364;2023-03-23T02:58:24;13.50;99.90
15564;DHT22;7883;52.554;13.364;2023-03-23T03:00:51;13.60;99.90
15564;DHT22;7883;52.554;13.364;2023-03-23T03:03:23;13.50;99.90
15564;DHT22;7883;52.554;13.364;2023-03-23T03:06:00;13.40;99.90
15564;DHT22;7883;52.554;13.364;2023-03-23T03:08:32;13.30;99.90
15564;DHT22;7883;52.554;13.364;2023-03-23T03:11:04;13.40;99.90
15564;DHT22;7883;52.554;13.364;2023-03-23T03:13:38;13.40;99.90
15564;DHT22;7883;52.554;13.364;2023-03-23T03:16:18;13.50;99.90
15564;DHT22;7883;52.554;13.364;2023-03-23T03:19:00;13.50;99.90
15564;DHT22;7883;52.554;13.364;2023-03-23T03:21:32;13.50;99.90
15564;DHT22;7883;52.554;13.364;2023-03-23T03:24:02;13.40;99.90
15564;DHT22;7883;52.554;13.364;2023-03-23T03:26:31;13.50;99.90
15564;DHT22;7883;52.554;13.364;2023-03-23T03:29:00;13.50;99.90
15564;DHT22;7883;52.554;13.364;2023-03-23T03:31:30;13.40;99.90
15564;DHT22;7883;52.554;13.364;2023-03-23T03:33:58;13.40;99.90
15564;DHT22;7883;52.554;13.364;2023-03-23T03:36:28;13.40;99.90
15564;DHT22;7883;52.554;13.364;2023-03-23T03:39:02;13.50;99.90
15564;DHT22;7883;52.554;13.364;2023-03-23T03:41:33;13.40;99.90
15564;DHT22;7883;52.554;13.364;2023-03-23T03:44:01;13.40;99.90
15564;DHT22;7883;52.554;13.364;2023-03-23T03:46:28;13.30;99.90
15564;DHT22;7883;52.554;13.364;2023-03-23T03:48:56;13.30;99.90
15564;DHT22;7883;52.554;13.364;2023-03-23T03:51:24;13.30;99.90
15564;DHT22;7883;52.554;13.364;2023-03-23T03:53:51;13.30;99.90
15564;DHT22;7883;52.554;13.364;2023-03-23T03:56:19;13.30;99.90
15564;DHT22;7883;52.554;13.364;2023-03-23T03:58:48;13.30;99.90
15564;DHT22;7883;52.554;13.364;2023-03-23T04:01:16;13.30;99.90
15564;DHT22;7883;52.554;13.364;2023-03-23T04:03:43;13.40;99.90
15564;DHT22;7883;52.554;13.364;2023-03-23T04:06:11;13.30;99.90
15564;DHT22;7883;52.554;13.364;2023-03-23T04:08:38;13.40;99.90
15564;DHT22;7883;52.554;13.364;2023-03-23T04:11:13;13.40;99.90
15564;DHT22;7883;52.554;13.364;2023-03-23T04:13:42;13.40;99.90
15564;DHT22;7883;52.554;13.364;2023-03-23T04:16:10;13.50;99.90
15564;DHT22;7883;52.554;13.364;2023-03-23T04:18:38;13.50;99.90
15564;DHT22;7883;52.554;13.364;2023-03-23T04:21:05;13.50;99.90
15564;DHT22;7883;52.554;13.364;2023-03-23T04:23:34;13.40;99.90
15564;DHT22;7883;52.554;13.364;2023-03-23T04:26:01;13.40;99.90
15564;DHT22;7883;52.554;13.364;2023-03-23T04:28:29;13.40;99.90
15564;DHT22;7883;52.554;13.364;2023-03-23T04:31:01;13.40;99.90
15564;DHT22;7883;52.554;13.364;2023-03-23T04:33:29;13.40;99.90
15564;DHT22;7883;52.554;13.364;2023-03-23T04:35:59;13.50;99.90
15564;DHT22;7883;52.554;13.364;2023-03-23T04:38:28;13.50;99.90
15564;DHT22;7883;52.554;13.364;2023-03-23T04:40:58;13.50;99.90
15564;DHT22;7883;52.554;13.364;2023-03-23T04:43:28;13.40;99.90
15564;DHT22;7883;52.554;13.364;2023-03-23T04:45:56;13.40;99.90
15564;DHT22;7883;52.554;13.364;2023-03-23T04:48:26;13.30;99.90
15564;DHT22;7883;52.554;13.364;2023-03-23T04:50:55;13.30;99.90
15564;DHT22;7883;52.554;13.364;2023-03-23T04:53:25;13.20;99.90
15564;DHT22;7883;52.554;13.364;2023-03-23T04:55:52;13.20;99.90
15564;DHT22;7883;52.554;13.364;2023-03-23T04:58:19;13.20;99.90
15564;DHT22;7883;52.554;13.364;2023-03-23T05:00:46;13.10;99.90
15564;DHT22;7883;52.554;13.364;2023-03-23T05:03:15;13.10;99.90
15564;DHT22;7883;52.554;13.364;2023-03-23T05:05:44;13.10;99.90
15564;DHT22;7883;52.554;13.364;2023-03-23T05:08:12;13.00;99.90
15564;DHT22;7883;52.554;13.364;2023-03-23T05:10:39;13.00;99.90
15564;DHT22;7883;52.554;13.364;2023-03-23T05:13:06;13.00;99.90
15564;DHT22;7883;52.554;13.364;2023-03-23T05:15:33;13.00;99.90
15564;DHT22;7883;52.554;13.364;2023-03-23T05:18:00;13.00;99.90
15564;DHT22;7883;52.554;13.364;2023-03-23T05:20:27;13.00;99.90
15564;DHT22;7883;52.554;13.364;2023-03-23T05:22:57;13.00;99.90
15564;DHT22;7883;52.554;13.364;2023-03-23T05:25:24;13.00;99.90
15564;DHT22;7883;52.554;13.364;2023-03-23T05:27:51;13.00;99.90
15564;DHT22;7883;52.554;13.364;2023-03-23T05:30:20;12.90;99.90
15564;DHT22;7883;52.554;13.364;2023-03-23T05:32:47;12.90;99.90
15564;DHT22;7883;52.554;13.364;2023-03-23T05:35:16;12.90;99.90
15564;DHT22;7883;52.554;13.364;2023-03-23T05:37:43;12.90;99.90
15564;DHT22;7883;52.554;13.364;2023-03-23T05:40:13;12.90;99.90
15564;DHT22;7883;52.554;13.364;2023-03-23T05:42:41;12.90;99.90
15564;DHT22;7883;52.554;13.364;2023-03-23T05:45:09;13.00;99.90
15564;DHT22;7883;52.554;13.364;2023-03-23T05:47:36;13.00;99.90
15564;DHT22;7883;52.554;13.364;2023-03-23T05:50:04;12.90;99.90
15564;DHT22;7883;52.554;13.364;2023-03-23T05:52:31;12.90;99.90
15564;DHT22;7883;52.554;13.364;2023-03-23T05:55:01;12.80;99.90
15564;DHT22;7883;52.554;13.364;2023-03-23T05:57:30;12.70;99.90
15564;DHT22;7883;52.554;13.364;2023-03-23T05:59:58;12.70;99.90
15564;DHT22;7883;52.554;13.364;2023-03-23T06:02:25;12.60;99.90
15564;DHT22;7883;52.554;13.364;2023-03-23T06:04:55;12.60;99.90
15564;DHT22;7883;52.554;13.364;2023-03-23T06:07:24;12.60;99.90
15564;DHT22;7883;52.554;13.364;2023-03-23T06:09:51;12.50;99.90
15564;DHT22;7883;52.554;13.364;2023-03-23T06:12:18;12.50;99.90
15564;DHT22;7883;52.554;13.364;2023-03-23T06:14:47;12.50;99.90
15564;DHT22;7883;52.554;13.364;2023-03-23T06:17:14;12.50;99.90
15564;DHT22;7883;52.554;13.364;2023-03-23T06:19:41;12.50;99.90
15564;DHT22;7883;52.554;13.364;2023-03-23T06:22:09;12.50;99.90
15564;DHT22;7883;52.554;13.364;2023-03-23T06:24:36;12.40;99.90
15564;DHT22;7883;52.554;13.364;2023-03-23T06:27:03;12.40;99.90
15564;DHT22;7883;52.554;13.364;2023-03-23T06:29:30;12.40;99.90
15564;DHT22;7883;52.554;13.364;2023-03-23T06:32:01;12.50;99.90
15564;DHT22;7883;52.554;13.364;2023-03-23T06:34:29;12.50;99.90
15564;DHT22;7883;52.554;13.364;2023-03-23T06:36:58;12.40;99.90
15564;DHT22;7883;52.554;13.364;2023-03-23T06:39:26;12.40;99.90
15564;DHT22;7883;52.554;13.364;2023-03-23T06:41:53;12.40;99.90
15564;DHT22;7883;52.554;13.364;2023-03-23T06:44:20;12.40;99.90
15564;DHT22;7883;52.554;13.364;2023-03-23T06:46:46;12.40;99.90
15564;DHT22;7883;52.554;13.364;2023-03-23T06:49:15;12.40;99.90
15564;DHT22;7883;52.554;13.364;2023-03-23T06:51:42;12.40;99.90
15564;DHT22;7883;52.554;13.364;2023-03-23T06:54:09;12.40;99.90
15564;DHT22;7883;52.554;13.364;2023-03-23T06:56:36;12.50;99.90
15564;DHT22;7883;52.554;13.364;2023-03-23T06:59:03;12.50;99.90
15564;DHT22;7883;52.554;13.364;2023-03-23T07:01:30;12.50;99.90
15564;DHT22;7883;52.554;13.364;2023-03-23T07:03:57;12.50;99.90
15564;DHT22;7883;52.554;13.364;2023-03-23T07:06:26;12.50;99.90
15564;DHT22;7883;52.554;13.364;2023-03-23T07:08:53;12.50;99.90
15564;DHT22;7883;52.554;13.364;2023-03-23T07:11:19;12.60;99.90
15564;DHT22;7883;52.554;13.364;2023-03-23T07:13:46;12.60;99.90
15564;DHT22;7883;52.554;13.364;2023-03-23T07:16:16;12.60;99.90
15564;DHT22;7883;52.554;13.364;2023-03-23T07:18:43;12.70;99.90
15564;DHT22;7883;52.554;13.364;2023-03-23T07:21:10;12.70;99.90
15564;DHT22;7883;52.554;13.364;2023-03-23T07:23:38;12.80;99.90
15564;DHT22;7883;52.554;13.364;2023-03-23T07:26:06;12.60;99.90
15564;DHT22;7883;52.554;13.364;2023-03-23T07:28:33;12.60;99.90
15564;DHT22;7883;52.554;13.364;2023-03-23T07:31:01;12.70;99.90
15564;DHT22;7883;52.554;13.364;2023-03-23T07:33:27;12.70;99.90
15564;DHT22;7883;52.554;13.364;2023-03-23T07:35:55;12.70;99.90
15564;DHT22;7883;52.554;13.364;2023-03-23T07:38:22;12.70;99.90
15564;DHT22;7883;52.554;13.364;2023-03-23T07:40:52;12.70;99.90
15564;DHT22;7883;52.554;13.364;2023-03-23T07:43:19;12.70;99.90
15564;DHT22;7883;52.554;13.364;2023-03-23T07:45:46;12.80;99.90
15564;DHT22;7883;52.554;13.364;2023-03-23T07:48:13;12.90;99.90
15564;DHT22;7883;52.554;13.364;2023-03-23T07:50:40;13.00;99.90
15564;DHT22;7883;52.554;13.364;2023-03-23T07:53:07;13.00;99.90
15564;DHT22;7883;52.554;13.364;2023-03-23T07:55:34;13.00;99.90
15564;DHT22;7883;52.554;13.364;2023-03-23T07:58:03;13.00;99.90
15564;DHT22;7883;52.554;13.364;2023-03-23T08:02:15;13.00;99.90
15564;DHT22;7883;52.554;13.364;2023-03-23T08:04:42;13.00;99.90
15564;DHT22;7883;52.554;13.364;2023-03-23T08:07:48;13.00;99.90
15564;DHT22;7883;52.554;13.364;2023-03-23T08:10:16;13.10;99.90
15564;DHT22;7883;52.554;13.364;2023-03-23T08:12:53;13.10;99.90
15564;DHT22;7883;52.554;13.364;2023-03-23T08:15:25;13.20;99.90
15564;DHT22;7883;52.554;13.364;2023-03-23T08:17:53;13.10;99.90
15564;DHT22;7883;52.554;13.364;2023-03-23T08:20:22;13.10;99.90
15564;DHT22;7883;52.554;13.364;2023-03-23T08:22:53;13.10;99.90
15564;DHT22;7883;52.554;13.364;2023-03-23T08:25:21;13.20;99.90
15564;DHT22;7883;52.554;13.364;2023-03-23T08:27:50;13.20;99.90
15564;DHT22;7883;52.554;13.364;2023-03-23T08:30:18;13.20;99.90
15564;DHT22;7883;52.554;13.364;2023-03-23T08:32:47;13.20;99.90
15564;DHT22;7883;52.554;13.364;2023-03-23T08:35:15;13.30;99.90
15564;DHT22;7883;52.554;13.364;2023-03-23T08:37:42;13.20;99.90
15564;DHT22;7883;52.554;13.364;2023-03-23T08:40:13;13.30;99.90
15564;DHT22;7883;52.554;13.364;2023-03-23T08:42:45;13.10;99.90
15564;DHT22;7883;52.554;13.364;2023-03-23T08:45:14;13.00;99.90
15564;DHT22;7883;52.554;13.364;2023-03-23T08:47:42;13.10;99.90
15564;DHT22;7883;52.554;13.364;2023-03-23T08:50:11;13.20;99.90
15564;DHT22;7883;52.554;13.364;2023-03-23T08:52:39;13.30;99.90
15564;DHT22;7883;52.554;13.364;2023-03-23T08:55:07;13.40;99.90
15564;DHT22;7883;52.554;13.364;2023-03-23T08:57:36;13.40;99.90
15564;DHT22;7883;52.554;13.364;2023-03-23T09:00:04;13.50;99.90
15564;DHT22;7883;52.554;13.364;2023-03-23T09:02:41;13.50;99.90
15564;DHT22;7883;52.554;13.364;2023-03-23T09:05:09;13.50;99.90
15564;DHT22;7883;52.554;13.364;2023-03-23T09:07:41;13.60;99.90
15564;DHT22;7883;52.554;13.364;2023-03-23T09:10:10;13.40;99.90
15564;DHT22;7883;52.554;13.364;2023-03-23T09:12:39;13.40;99.90
15564;DHT22;7883;52.554;13.364;2023-03-23T09:15:07;13.50;99.90
15564;DHT22;7883;52.554;13.364;2023-03-23T09:17:35;13.60;99.90
15564;DHT22;7883;52.554;13.364;2023-03-23T09:20:04;13.50;99.90
15564;DHT22;7883;52.554;13.364;2023-03-23T09:22:36;13.50;99.90
15564;DHT22;7883;52.554;13.364;2023-03-23T09:25:05;13.50;99.90
15564;DHT22;7883;52.554;13.364;2023-03-23T09:27:32;13.60;99.90
15564;DHT22;7883;52.554;13.364;2023-03-23T09:30:00;13.60;99.90
15564;DHT22;7883;52.554;13.364;2023-03-23T09:32:28;13.60;99.90
15564;DHT22;7883;52.554;13.364;2023-03-23T09:34:57;13.60;99.90
15564;DHT22;7883;52.554;13.364;2023-03-23T09:37:24;13.70;99.90
15564;DHT22;7883;52.554;13.364;2023-03-23T09:42:18;13.90;99.90
15564;DHT22;7883;52.554;13.364;2023-03-23T09:45:02;14.10;99.90
15564;DHT22;7883;52.554;13.364;2023-03-23T09:50:18;14.40;99.90
15564;DHT22;7883;52.554;13.364;2023-03-23T09:52:49;14.40;99.90
15564;DHT22;7883;52.554;13.364;2023-03-23T09:55:19;14.40;99.90
15564;DHT22;7883;52.554;13.364;2023-03-23T09:57:52;14.40;99.90
15564;DHT22;7883;52.554;13.364;2023-03-23T10:00:28;14.50;99.90
15564;DHT22;7883;52.554;13.364;2023-03-23T10:03:01;14.40;99.90
15564;DHT22;7883;52.554;13.364;2023-03-23T10:05:35;14.50;99.90
15564;DHT22;7883;52.554;13.364;2023-03-23T10:08:09;14.60;99.90
15564;DHT22;7883;52.554;13.364;2023-03-23T10:10:45;14.50;99.90
15564;DHT22;7883;52.554;13.364;2023-03-23T10:13:23;14.60;99.90
15564;DHT22;7883;52.554;13.364;2023-03-23T10:15:54;14.40;99.90
15564;DHT22;7883;52.554;13.364;2023-03-23T10:18:32;14.40;99.90
15564;DHT22;7883;52.554;13.364;2023-03-23T10:21:03;14.50;99.90
15564;DHT22;7883;52.554;13.364;2023-03-23T10:23:50;14.50;99.90
15564;DHT22;7883;52.554;13.364;2023-03-23T10:26:52;14.50;99.90
15564;DHT22;7883;52.554;13.364;2023-03-23T10:29:26;14.50;99.90
15564;DHT22;7883;52.554;13.364;2023-03-23T10:31:58;14.60;99.90
15564;DHT22;7883;52.554;13.364;2023-03-23T10:34:30;14.60;99.90
15564;DHT22;7883;52.554;13.364;2023-03-23T10:37:10;14.60;99.90
15564;DHT22;7883;52.554;13.364;2023-03-23T10:39:45;14.80;99.90
15564;DHT22;7883;52.554;13.364;2023-03-23T10:42:20;14.80;99.90
15564;DHT22;7883;52.554;13.364;2023-03-23T10:44:48;14.80;99.90
15564;DHT22;7883;52.554;13.364;2023-03-23T10:47:15;14.80;99.90
15564;DHT22;7883;52.554;13.364;2023-03-23T10:49:46;14.80;99.90
15564;DHT22;7883;52.554;13.364;2023-03-23T10:52:28;14.90;99.90
15564;DHT22;7883;52.554;13.364;2023-03-23T10:55:01;15.00;99.90
15564;DHT22;7883;52.554;13.364;2023-03-23T10:57:31;14.90;99.90
15564;DHT22;7883;52.554;13.364;2023-03-23T11:00:01;14.90;99.90
15564;DHT22;7883;52.554;13.364;2023-03-23T11:02:32;14.90;99.90
15564;DHT22;7883;52.554;13.364;2023-03-23T11:05:07;14.90;99.90
15564;DHT22;7883;52.554;13.364;2023-03-23T11:07:41;14.90;99.90
15564;DHT22;7883;52.554;13.364;2023-03-23T11:10:20;14.90;99.90
15564;DHT22;7883;52.554;13.364;2023-03-23T11:12:48;14.90;99.90
15564;DHT22;7883;52.554;13.364;2023-03-23T11:15:21;14.90;99.90
15564;DHT22;7883;52.554;13.364;2023-03-23T11:18:02;14.80;99.90
15564;DHT22;7883;52.554;13.364;2023-03-23T11:20:35;14.90;99.90
15564;DHT22;7883;52.554;13.364;2023-03-23T11:23:18;14.90;99.90
15564;DHT22;7883;52.554;13.364;2023-03-23T11:25:53;14.90;99.90
15564;DHT22;7883;52.554;13.364;2023-03-23T11:28:21;14.90;99.90
15564;DHT22;7883;52.554;13.364;2023-03-23T11:49:00;15.30;99.90
15564;DHT22;7883;52.554;13.364;2023-03-23T11:51:34;15.30;99.90
15564;DHT22;7883;52.554;13.364;2023-03-23T11:54:12;15.40;99.90
15564;DHT22;7883;52.554;13.364;2023-03-23T12:04:56;15.40;99.90
15564;DHT22;7883;52.554;13.364;2023-03-23T12:13:18;15.50;99.90
15564;DHT22;7883;52.554;13.364;2023-03-23T12:21:08;15.50;99.90
15564;DHT22;7883;52.554;13.364;2023-03-23T12:29:12;15.50;99.90
15564;DHT22;7883;52.554;13.364;2023-03-23T12:31:49;15.50;99.90
15564;DHT22;7883;52.554;13.364;2023-03-23T12:34:26;15.50;99.90
15564;DHT22;7883;52.554;13.364;2023-03-23T12:37:19;15.50;99.90
15564;DHT22;7883;52.554;13.364;2023-03-23T12:42:51;15.60;99.90
15564;DHT22;7883;52.554;13.364;2023-03-23T12:45:41;15.50;99.90
15564;DHT22;7883;52.554;13.364;2023-03-23T12:48:13;15.60;99.90
15564;DHT22;7883;52.554;13.364;2023-03-23T12:50:44;15.60;99.90
15564;DHT22;7883;52.554;13.364;2023-03-23T12:53:17;15.60;99.90
15564;DHT22;7883;52.554;13.364;2023-03-23T12:55:47;15.70;99.90
15564;DHT22;7883;52.554;13.364;2023-03-23T12:58:19;15.80;99.90
15564;DHT22;7883;52.554;13.364;2023-03-23T13:00:54;15.90;99.90
15564;DHT22;7883;52.554;13.364;2023-03-23T13:03:27;16.00;99.90
15564;DHT22;7883;52.554;13.364;2023-03-23T13:06:03;16.10;99.90
15564;DHT22;7883;52.554;13.364;2023-03-23T13:08:35;16.10;99.90
15564;DHT22;7883;52.554;13.364;2023-03-23T13:11:04;16.10;99.90
15564;DHT22;7883;52.554;13.364;2023-03-23T13:13:45;16.10;99.90
15564;DHT22;7883;52.554;13.364;2023-03-23T13:16:19;16.10;99.90
15564;DHT22;7883;52.554;13.364;2023-03-23T13:18:52;16.10;99.90
15564;DHT22;7883;52.554;13.364;2023-03-23T13:21:25;16.20;99.90
15564;DHT22;7883;52.554;13.364;2023-03-23T13:23:57;16.30;99.90
15564;DHT22;7883;52.554;13.364;2023-03-23T13:26:26;16.30;99.90
15564;DHT22;7883;52.554;13.364;2023-03-23T13:28:57;16.30;99.90
15564;DHT22;7883;52.554;13.364;2023-03-23T13:31:29;16.40;99.90
15564;DHT22;7883;52.554;13.364;2023-03-23T13:34:01;16.40;99.90
15564;DHT22;7883;52.554;13.364;2023-03-23T13:36:31;16.50;99.90
15564;DHT22;7883;52.554;13.364;2023-03-23T13:39:02;16.50;99.90
15564;DHT22;7883;52.554;13.364;2023-03-23T13:41:33;16.50;99.90
15564;DHT22;7883;52.554;13.364;2023-03-23T13:44:18;16.60;99.90
15564;DHT22;7883;52.554;13.364;2023-03-23T13:46:56;16.70;99.90
15564;DHT22;7883;52.554;13.364;2023-03-23T13:49:25;16.80;99.90
15564;DHT22;7883;52.554;13.364;2023-03-23T13:52:22;16.70;99.90
15564;DHT22;7883;52.554;13.364;2023-03-23T13:54:52;16.80;99.90
15564;DHT22;7883;52.554;13.364;2023-03-23T13:57:37;16.70;99.90
15564;DHT22;7883;52.554;13.364;2023-03-23T14:02:59;16.70;99.90
15564;DHT22;7883;52.554;13.364;2023-03-23T14:05:34;16.70;99.90
15564;DHT22;7883;52.554;13.364;2023-03-23T14:08:10;16.70;99.90
15564;DHT22;7883;52.554;13.364;2023-03-23T14:10:41;16.80;99.90
15564;DHT22;7883;52.554;13.364;2023-03-23T14:13:18;16.90;99.90
15564;DHT22;7883;52.554;13.364;2023-03-23T14:15:56;17.00;99.90
15564;DHT22;7883;52.554;13.364;2023-03-23T14:18:37;17.00;99.90
15564;DHT22;7883;52.554;13.364;2023-03-23T14:21:05;17.00;99.90
15564;DHT22;7883;52.554;13.364;2023-03-23T14:23:33;16.90;99.90
15564;DHT22;7883;52.554;13.364;2023-03-23T14:26:10;16.90;99.90
15564;DHT22;7883;52.554;13.364;2023-03-23T14:28:41;16.70;99.90
15564;DHT22;7883;52.554;13.364;2023-03-23T14:31:18;16.70;99.90
15564;DHT22;7883;52.554;13.364;2023-03-23T14:33:45;16.60;99.90
15564;DHT22;7883;52.554;13.364;2023-03-23T14:36:14;16.60;99.90
15564;DHT22;7883;52.554;13.364;2023-03-23T14:38:41;16.50;99.90
15564;DHT22;7883;52.554;13.364;2023-03-23T14:41:11;16.50;99.90
15564;DHT22;7883;52.554;13.364;2023-03-23T14:43:39;16.50;99.90
15564;DHT22;7883;52.554;13.364;2023-03-23T14:46:08;16.50;99.90
15564;DHT22;7883;52.554;13.364;2023-03-23T14:48:38;16.40;99.90
15564;DHT22;7883;52.554;13.364;2023-03-23T14:51:06;16.50;99.90
15564;DHT22;7883;52.554;13.364;2023-03-23T14:53:36;16.50;99.90
15564;DHT22;7883;52.554;13.364;2023-03-23T14:56:09;16.50;99.90
15564;DHT22;7883;52.554;13.364;2023-03-23T14:58:38;16.40;99.90
15564;DHT22;7883;52.554;13.364;2023-03-23T15:01:10;16.50;99.90
15564;DHT22;7883;52.554;13.364;2023-03-23T15:03:42;16.70;99.90
15564;DHT22;7883;52.554;13.364;2023-03-23T15:06:15;16.70;99.90
15564;DHT22;7883;52.554;13.364;2023-03-23T15:08:44;16.80;99.90
15564;DHT22;7883;52.554;13.364;2023-03-23T15:11:20;16.80;99.90
15564;DHT22;7883;52.554;13.364;2023-03-23T15:13:53;16.80;99.90
15564;DHT22;7883;52.554;13.364;2023-03-23T15:16:26;16.80;99.90
15564;DHT22;7883;52.554;13.364;2023-03-23T15:18:55;16.80;99.90
15564;DHT22;7883;52.554;13.364;2023-03-23T15:21:26;16.80;99.90
15564;DHT22;7883;52.554;13.364;2023-03-23T15:23:54;16.80;99.90
15564;DHT22;7883;52.554;13.364;2023-03-23T15:26:27;16.80;99.90
15564;DHT22;7883;52.554;13.364;2023-03-23T15:29:20;16.80;99.90
15564;DHT22;7883;52.554;13.364;2023-03-23T15:31:50;16.80;99.90
15564;DHT22;7883;52.554;13.364;2023-03-23T15:34:29;16.80;99.90
15564;DHT22;7883;52.554;13.364;2023-03-23T15:36:58;16.80;99.90
15564;DHT22;7883;52.554;13.364;2023-03-23T15:39:26;16.80;99.90
15564;DHT22;7883;52.554;13.364;2023-03-23T15:41:54;16.70;99.90
15564;DHT22;7883;52.554;13.364;2023-03-23T15:44:32;16.70;99.90
15564;DHT22;7883;52.554;13.364;2023-03-23T15:47:12;16.60;99.90
15564;DHT22;7883;52.554;13.364;2023-03-23T15:49:39;16.50;99.90
15564;DHT22;7883;52.554;13.364;2023-03-23T15:52:09;16.50;99.90
15564;DHT22;7883;52.554;13.364;2023-03-23T15:54:37;16.50;99.90
15564;DHT22;7883;52.554;13.364;2023-03-23T15:57:05;16.40;99.90
15564;DHT22;7883;52.554;13.364;2023-03-23T15:59:34;16.40;99.90
15564;DHT22;7883;52.554;13.364;2023-03-23T16:02:01;16.40;99.90
15564;DHT22;7883;52.554;13.364;2023-03-23T16:07:03;16.40;99.90
15564;DHT22;7883;52.554;13.364;2023-03-23T16:45:48;15.30;99.90
15564;DHT22;7883;52.554;13.364;2023-03-23T16:48:15;15.20;99.90
15564;DHT22;7883;52.554;13.364;2023-03-23T16:50:43;15.10;99.90
15564;DHT22;7883;52.554;13.364;2023-03-23T16:53:10;15.00;99.90
15564;DHT22;7883;52.554;13.364;2023-03-23T16:55:38;15.00;99.90
15564;DHT22;7883;52.554;13.364;2023-03-23T16:58:06;14.90;99.90
15564;DHT22;7883;52.554;13.364;2023-03-23T17:00:33;14.80;99.90
15564;DHT22;7883;52.554;13.364;2023-03-23T17:03:03;14.80;99.90
15564;DHT22;7883;52.554;13.364;2023-03-23T17:05:30;14.70;99.90
15564;DHT22;7883;52.554;13.364;2023-03-23T17:07:57;14.70;99.90
15564;DHT22;7883;52.554;13.364;2023-03-23T17:10:28;14.70;99.90
15564;DHT22;7883;52.554;13.364;2023-03-23T17:12:55;14.70;99.90
15564;DHT22;7883;52.554;13.364;2023-03-23T17:15:22;14.60;99.90
15564;DHT22;7883;52.554;13.364;2023-03-23T17:23:21;14.40;99.90
15564;DHT22;7883;52.554;13.364;2023-03-23T17:31:06;14.30;99.90
15564;DHT22;7883;52.554;13.364;2023-03-23T17:36:06;14.20;99.90
15564;DHT22;7883;52.554;13.364;2023-03-23T17:38:39;14.20;99.90
15564;DHT22;7883;52.554;13.364;2023-03-23T17:41:06;14.10;99.90